Time;durP1;ratioP1;P1;durP2;ratioP2;P2;SDS_P1;SDS_P2;PMS_P1;PMS_P2;Temp;Humidity;BMP_temperature;BMP_pressure;BME280_temperature;BME280_humidity;BME280_pressure;Samples;Min_cycle;Max_cycle;Signal;HPM_P1;HPM_P2
2022/04/28 00:01:51;;;;;;;9.93;4.50;;;;;;;4.94;82.60;102160.53;6010980;28;20486;-68
2022/04/28 00:04:46;;;;;;;11.23;4.20;;;;;;;4.95;81.95;102165.69;6007677;28;20039;-69
2022/04/28 00:07:42;;;;;;;8.80;4.20;;;;;;;4.86;81.84;102176.66;6018077;28;20059;-69
2022/04/28 00:10:38;;;;;;;9.77;4.05;;;;;;;4.95;81.42;102170.94;6007454;28;20027;-69
2022/04/28 00:13:33;;;;;;;15.55;5.10;;;;;;;4.92;81.90;102167.63;6006575;28;20038;-69
2022/04/28 00:16:29;;;;;;;12.20;4.00;;;;;;;4.88;82.58;102171.31;6010746;28;20046;-68
2022/04/28 00:19:24;;;;;;;9.15;3.83;;;;;;;4.78;81.76;102174.38;6014278;28;20038;-68
2022/04/28 00:22:21;;;;;;;9.97;4.10;;;;;;;4.77;82.27;102175.31;6007543;28;20042;-69
2022/04/28 00:25:16;;;;;;;12.18;3.97;;;;;;;4.66;81.82;102180.22;6007364;28;20410;-70
2022/04/28 00:28:11;;;;;;;10.97;4.50;;;;;;;4.55;82.89;102182.50;6012524;28;20027;-68
2022/04/28 00:31:07;;;;;;;14.37;4.67;;;;;;;4.68;82.66;102178.38;6008294;28;20065;-68
2022/04/28 00:34:03;;;;;;;10.07;4.07;;;;;;;4.74;82.59;102177.22;6007236;28;20031;-68
2022/04/28 00:36:58;;;;;;;8.80;3.90;;;;;;;4.74;82.11;102177.22;6009112;28;20042;-68
2022/04/28 00:39:54;;;;;;;11.17;4.43;;;;;;;4.61;82.03;102182.22;6014641;28;20394;-70
2022/04/28 00:42:49;;;;;;;9.47;3.87;;;;;;;4.54;82.67;102177.34;6016461;28;20081;-68
2022/04/28 00:45:48;;;;;;;11.43;4.47;;;;;;;4.54;82.87;102186.03;6008414;28;20035;-70
2022/04/28 00:51:59;;;;;;;;;;;;;;;4.30;84.28;102187.19;6008347;28;20023;-69
2022/04/28 00:54:55;;;;;;;12.80;3.92;;;;;;;4.25;84.56;102183.06;6007559;28;19918;-68
2022/04/28 00:57:50;;;;;;;11.75;4.38;;;;;;;4.29;84.32;102188.13;6001015;28;20038;-69
2022/04/28 01:00:46;;;;;;;14.57;4.13;;;;;;;4.14;84.80;102175.66;6013331;28;20467;-69
2022/04/28 01:03:42;;;;;;;10.98;4.68;;;;;;;4.31;84.61;102188.88;6018923;28;20046;-69
2022/04/28 01:06:40;;;;;;;9.20;4.20;;;;;;;4.33;83.73;102194.06;6016622;28;20110;-69
2022/04/28 01:09:38;;;;;;;15.95;4.35;;;;;;;4.34;84.65;102194.00;6013402;28;20042;-69
2022/04/28 01:12:33;;;;;;;8.77;3.85;;;;;;;4.39;84.10;102197.28;6006351;28;20126;-69
2022/04/28 01:15:29;;;;;;;9.97;4.10;;;;;;;4.25;84.02;102199.66;6008096;28;20030;-69
2022/04/28 01:18:24;;;;;;;12.60;4.73;;;;;;;4.25;83.81;102194.41;6009187;28;20294;-69
2022/04/28 01:21:20;;;;;;;11.93;4.07;;;;;;;4.34;83.96;102191.38;6011498;28;20071;-69
2022/04/28 01:24:15;;;;;;;14.25;4.32;;;;;;;4.34;83.84;102180.88;6007061;28;20053;-69
2022/04/28 01:27:12;;;;;;;11.18;4.47;;;;;;;4.54;83.68;102204.44;6010975;28;20454;-69
2022/04/28 01:30:16;;;;;;;9.75;3.63;;;;;;;4.39;84.69;102194.66;6007705;28;20058;-68
2022/04/28 01:33:12;;;;;;;10.40;4.22;;;;;;;4.32;84.65;102201.06;6007270;28;20026;-69
2022/04/28 01:36:09;;;;;;;11.53;3.87;;;;;;;4.14;84.68;102202.78;6006087;28;20362;-69
2022/04/28 01:39:08;;;;;;;9.82;4.22;;;;;;;4.15;85.27;102198.38;6006607;28;20035;-68
2022/04/28 01:42:05;;;;;;;10.00;4.30;;;;;;;3.93;85.08;102202.88;6010425;28;20084;-69
2022/04/28 01:45:01;;;;;;;14.10;4.40;;;;;;;4.02;85.34;102199.84;6008298;28;20066;-69
2022/04/28 01:47:56;;;;;;;8.63;3.92;;;;;;;3.88;85.77;102202.22;6004528;28;20023;-69
2022/04/28 01:57:20;;;;;;;13.63;4.50;;;;;;;3.88;86.27;102210.09;6007736;28;19913;-68
2022/04/28 02:00:15;;;;;;;11.50;5.00;;;;;;;4.12;85.81;102209.00;6016952;28;20376;-69
2022/04/28 02:03:11;;;;;;;11.20;4.72;;;;;;;3.93;85.31;102206.34;6008886;28;20046;-68
2022/04/28 02:06:06;;;;;;;10.68;4.93;;;;;;;4.16;85.89;102208.78;6006096;28;20057;-69
2022/04/28 02:09:01;;;;;;;12.93;4.43;;;;;;;4.21;85.47;102214.69;6006244;28;20852;-69
2022/04/28 02:11:56;;;;;;;11.13;3.93;;;;;;;4.11;84.79;102213.41;6009874;28;20093;-69
2022/04/28 02:14:53;;;;;;;13.77;4.03;;;;;;;3.99;85.76;102210.47;6005914;28;20039;-69
2022/04/28 02:17:48;;;;;;;11.32;4.75;;;;;;;3.85;85.95;102215.47;6009865;28;20149;-69
2022/04/28 02:20:43;;;;;;;12.27;4.03;;;;;;;3.91;86.46;102209.97;6012185;28;20046;-69
2022/04/28 02:23:38;;;;;;;15.30;4.67;;;;;;;3.76;86.36;102215.84;6014798;28;20503;-69
2022/04/28 02:26:34;;;;;;;12.47;4.17;;;;;;;3.93;85.73;102216.00;6005631;28;20039;-69
2022/04/28 02:29:29;;;;;;;12.25;4.55;;;;;;;3.97;86.24;102214.91;6010686;28;20026;-69
2022/04/28 02:32:24;;;;;;;12.48;4.40;;;;;;;3.91;85.85;102212.59;6012844;28;20041;-69
2022/04/28 02:35:20;;;;;;;12.93;4.50;;;;;;;3.65;85.20;102205.81;6011289;28;20026;-68
2022/04/28 02:38:15;;;;;;;10.27;4.20;;;;;;;3.80;86.47;102214.81;6004703;28;20489;-69
2022/04/28 02:41:10;;;;;;;11.20;4.50;;;;;;;3.93;85.95;102208.97;6012320;28;20038;-68
2022/04/28 02:44:06;;;;;;;12.07;4.47;;;;;;;3.90;85.75;102209.09;6008089;28;20281;-69
2022/04/28 02:47:02;;;;;;;12.25;4.47;;;;;;;3.68;85.23;102210.94;6005749;28;20039;-68
2022/04/28 02:49:58;;;;;;;9.48;4.22;;;;;;;3.49;86.53;102210.88;6017590;28;20068;-68
2022/04/28 02:52:53;;;;;;;15.20;4.82;;;;;;;3.26;86.68;102213.56;6015760;28;20048;-70
2022/04/28 02:55:48;;;;;;;9.38;4.05;;;;;;;3.05;88.21;102209.19;6013622;28;20062;-68
2022/04/28 02:58:44;;;;;;;12.23;4.53;;;;;;;3.01;88.61;102199.78;6017939;28;20525;-69
2022/04/28 03:01:39;;;;;;;12.30;4.53;;;;;;;3.00;88.25;102211.16;6011119;28;20353;-69
2022/04/28 03:04:34;;;;;;;11.73;4.23;;;;;;;2.88;89.54;102216.91;6003093;28;20497;-68
2022/04/28 03:10:49;;;;;;;12.52;4.68;;;;;;;2.74;89.27;102214.81;6005331;28;20278;-68
2022/04/28 03:13:44;;;;;;;12.85;5.03;;;;;;;2.65;89.50;102217.78;6007691;28;20486;-68
2022/04/28 03:16:39;;;;;;;13.90;5.10;;;;;;;2.61;90.42;102225.81;6003218;28;20033;-69
2022/04/28 03:19:35;;;;;;;15.47;4.67;;;;;;;2.52;90.21;102220.91;6009935;28;20110;-69
2022/04/28 03:22:30;;;;;;;16.50;4.93;;;;;;;2.45;90.31;102214.22;6004053;28;20030;-69
2022/04/28 03:25:25;;;;;;;17.23;5.27;;;;;;;2.33;91.50;102213.75;6005973;28;20501;-70
2022/04/28 03:28:21;;;;;;;11.32;4.80;;;;;;;2.26;92.17;102217.50;6003722;28;20426;-68
2022/04/28 03:31:17;;;;;;;20.90;5.75;;;;;;;2.22;91.72;102221.16;6017874;28;20034;-69
2022/04/28 03:34:12;;;;;;;13.47;5.63;;;;;;;2.21;92.38;102226.41;6018335;28;20065;-69
2022/04/28 03:37:07;;;;;;;12.73;4.93;;;;;;;2.17;92.90;102224.84;6009357;28;20030;-70
2022/04/28 03:40:03;;;;;;;12.30;5.37;;;;;;;2.14;92.84;102231.03;6003230;28;20035;-69
2022/04/28 03:42:59;;;;;;;13.65;5.03;;;;;;;2.11;92.63;102231.13;6003800;28;20030;-68
2022/04/28 03:45:54;;;;;;;12.77;5.18;;;;;;;2.07;92.59;102229.53;6003397;28;20039;-69
2022/04/28 03:48:49;;;;;;;13.10;4.70;;;;;;;2.07;93.05;102229.53;6003879;28;20043;-69
2022/04/28 03:51:45;;;;;;;12.88;5.38;;;;;;;2.33;92.76;102236.44;6008465;28;20065;-69
2022/04/28 03:54:40;;;;;;;13.40;4.33;;;;;;;2.20;92.83;102230.78;6005019;28;20046;-69
2022/04/28 03:57:36;;;;;;;15.93;5.17;;;;;;;2.20;93.06;102230.78;6003528;28;20034;-68
2022/04/28 04:00:31;;;;;;;16.73;5.35;;;;;;;2.14;92.70;102238.03;6004087;28;20046;-68
2022/04/28 04:03:26;;;;;;;13.13;4.57;;;;;;;2.10;93.59;102234.66;6004254;28;20035;-68
2022/04/28 04:06:22;;;;;;;13.50;4.63;;;;;;;2.07;93.24;102234.75;6013007;28;20843;-69
2022/04/28 04:09:17;;;;;;;9.75;4.97;;;;;;;2.09;93.37;102235.56;6004053;28;20526;-68
2022/04/28 04:12:13;;;;;;;16.37;4.73;;;;;;;2.08;93.55;102240.84;6002372;28;20054;-68
2022/04/28 04:15:08;;;;;;;10.50;4.90;;;;;;;2.02;94.04;102241.91;6001993;28;20038;-69
2022/04/28 04:18:04;;;;;;;11.77;4.70;;;;;;;2.01;93.00;102236.75;5997561;28;20042;-69
2022/04/28 04:20:59;;;;;;;11.67;4.80;;;;;;;2.20;93.81;102246.50;6001396;28;20035;-69
2022/04/28 04:23:56;;;;;;;15.43;4.77;;;;;;;2.33;93.78;102242.53;6002178;28;20640;-68
2022/04/28 04:26:51;;;;;;;17.50;5.35;;;;;;;2.32;93.62;102251.28;6002216;28;20054;-69
2022/04/28 04:29:46;;;;;;;14.43;6.47;;;;;;;2.36;92.99;102263.34;6001865;28;20034;-68
2022/04/28 04:32:41;;;;;;;11.43;4.83;;;;;;;2.35;93.01;102251.19;6001616;28;20401;-69
2022/04/28 04:35:37;;;;;;;15.27;5.33;;;;;;;2.38;92.60;102250.22;6003078;28;20043;-69
2022/04/28 04:38:32;;;;;;;15.57;5.17;;;;;;;2.40;93.16;102253.63;6001294;28;20066;-68
2022/04/28 04:41:27;;;;;;;14.10;5.20;;;;;;;2.49;92.63;102252.44;6012545;28;20042;-68
2022/04/28 04:44:23;;;;;;;12.67;5.30;;;;;;;2.67;92.13;102259.59;6007210;28;20569;-69
2022/04/28 04:47:18;;;;;;;11.33;5.07;;;;;;;2.73;92.26;102254.13;6001730;28;20042;-69
2022/04/28 04:50:13;;;;;;;12.10;4.33;;;;;;;3.04;91.64;102262.53;6008055;28;20057;-69
2022/04/28 04:53:08;;;;;;;14.60;5.70;;;;;;;3.15;91.04;102262.97;6012294;28;20027;-69
2022/04/28 04:56:04;;;;;;;15.63;4.60;;;;;;;3.59;90.40;102256.75;6006544;28;20351;-69
2022/04/28 04:58:59;;;;;;;11.38;4.22;;;;;;;3.73;89.21;102260.56;6007395;28;20097;-69
2022/04/28 05:01:55;;;;;;;12.13;4.75;;;;;;;4.06;88.12;102272.25;6011554;28;20390;-68
2022/04/28 05:04:51;;;;;;;11.40;4.57;;;;;;;4.25;86.39;102270.53;6007877;28;20047;-69
2022/04/28 05:07:46;;;;;;;11.50;4.10;;;;;;;5.06;83.60;102271.16;6017614;28;20109;-68
2022/04/28 05:10:41;;;;;;;13.23;4.87;;;;;;;5.33;81.27;102276.88;6001492;28;20582;-68
2022/04/28 05:13:36;;;;;;;13.73;4.77;;;;;;;5.23;82.44;102276.50;6012826;28;20046;-68
2022/04/28 05:16:32;;;;;;;14.10;4.20;;;;;;;5.66;80.43;102277.00;6005237;28;20035;-69
2022/04/28 05:19:28;;;;;;;12.48;4.68;;;;;;;5.77;80.18;102277.34;6004932;28;20054;-69
2022/04/28 05:22:26;;;;;;;9.52;4.30;;;;;;;5.76;79.58;102286.19;6004925;28;20042;-69
2022/04/28 05:25:21;;;;;;;11.10;4.25;;;;;;;5.88;80.38;102291.69;6015902;28;20042;-68
2022/04/28 05:28:16;;;;;;;7.13;4.10;;;;;;;5.90;80.01;102295.09;6006972;28;20060;-68
2022/04/28 05:31:12;;;;;;;13.27;4.53;;;;;;;5.77;79.65;102298.38;6004317;28;20031;-68
2022/04/28 05:34:07;;;;;;;13.33;5.27;;;;;;;6.07;79.51;102288.97;6005026;28;20049;-69
2022/04/28 05:37:02;;;;;;;13.77;4.60;;;;;;;6.08;80.25;102292.47;6005037;28;20027;-68
2022/04/28 05:39:58;;;;;;;9.50;4.38;;;;;;;6.26;78.14;102291.50;5996428;28;20047;-68
2022/04/28 05:46:07;;;;;;;12.20;4.63;;;;;;;6.32;78.89;102299.09;6004397;28;20487;-69
2022/04/28 05:49:05;;;;;;;12.83;4.77;;;;;;;6.65;77.82;102305.25;6004476;28;20035;-69
2022/04/28 05:52:01;;;;;;;11.70;4.70;;;;;;;6.85;76.85;102299.72;6004213;28;20038;-68
2022/04/28 05:54:56;;;;;;;14.55;4.32;;;;;;;6.76;76.47;102308.16;6004284;28;20061;-68
2022/04/28 05:57:51;;;;;;;14.27;4.60;;;;;;;6.76;75.94;102309.94;6005794;28;20042;-69
2022/04/28 06:00:46;;;;;;;10.93;4.87;;;;;;;6.74;76.75;102310.00;6003754;28;20105;-69
2022/04/28 06:03:43;;;;;;;13.77;4.20;;;;;;;7.05;75.19;102319.75;6004256;28;20035;-68
2022/04/28 06:06:39;;;;;;;10.70;4.65;;;;;;;7.12;74.65;102315.88;6004363;28;20057;-68
2022/04/28 06:09:34;;;;;;;11.32;4.68;;;;;;;7.05;75.40;102320.59;6004114;28;20070;-68
2022/04/28 06:12:29;;;;;;;12.37;4.50;;;;;;;7.27;74.43;102312.34;6003370;28;20414;-68
2022/04/28 06:15:25;;;;;;;12.43;4.33;;;;;;;7.80;72.93;102315.44;6005103;28;20462;-68
2022/04/28 06:18:20;;;;;;;15.50;4.97;;;;;;;7.72;73.14;102324.72;6003929;28;20023;-68
2022/04/28 06:21:15;;;;;;;16.07;5.37;;;;;;;7.75;72.97;102319.28;6003525;28;20031;-69
2022/04/28 06:24:11;;;;;;;12.87;4.93;;;;;;;7.94;73.07;102319.91;6003075;28;20035;-69
2022/04/28 06:27:06;;;;;;;14.23;5.13;;;;;;;8.07;71.83;102318.25;5996668;28;20697;-68
2022/04/28 06:30:03;;;;;;;12.60;4.90;;;;;;;8.80;70.96;102316.50;6003243;28;20062;-69
2022/04/28 06:32:58;;;;;;;15.55;5.25;;;;;;;8.75;69.15;102316.75;6006469;28;20050;-69
2022/04/28 06:35:55;;;;;;;13.23;4.93;;;;;;;9.09;68.21;102330.53;6003873;28;20031;-69
2022/04/28 06:38:50;;;;;;;11.35;4.85;;;;;;;8.95;68.43;102328.75;6003103;28;20293;-69
2022/04/28 06:41:45;;;;;;;12.80;4.93;;;;;;;9.37;66.92;102315.47;6003058;28;20038;-69
2022/04/28 06:44:41;;;;;;;18.03;4.70;;;;;;;9.23;66.40;102325.22;6003501;28;20482;-68
2022/04/28 06:47:36;;;;;;;10.00;4.77;;;;;;;9.20;66.43;102328.06;6003333;28;20089;-69
2022/04/28 06:50:32;;;;;;;11.60;4.72;;;;;;;9.61;66.85;102328.03;6012746;28;20285;-68
2022/04/28 06:53:27;;;;;;;14.37;4.27;;;;;;;9.90;63.63;102326.97;6004528;28;20397;-68
2022/04/28 06:56:22;;;;;;;11.37;4.30;;;;;;;10.37;64.12;102323.78;6003222;28;20026;-69
2022/04/28 06:59:19;;;;;;;7.87;3.80;;;;;;;10.79;61.46;102320.81;6003153;28;20038;-68
2022/04/28 07:02:15;;;;;;;8.20;3.78;;;;;;;10.53;61.69;102325.28;6002468;28;20101;-66
2022/04/28 07:05:11;;;;;;;10.63;3.83;;;;;;;10.43;60.81;102331.34;6002885;28;20030;-69
2022/04/28 07:08:07;;;;;;;9.23;3.70;;;;;;;10.21;61.66;102339.91;6003472;28;20118;-69
2022/04/28 07:11:02;;;;;;;10.57;3.45;;;;;;;11.12;58.58;102334.34;6002358;28;20027;-68
2022/04/28 07:13:57;;;;;;;10.07;3.87;;;;;;;11.79;57.06;102332.97;6002437;28;20043;-69
2022/04/28 07:16:53;;;;;;;11.40;3.25;;;;;;;11.40;57.26;102337.66;6002570;28;20292;-68
2022/04/28 07:19:48;;;;;;;14.10;3.57;;;;;;;11.21;57.66;102338.16;6002986;28;20409;-68
2022/04/28 07:22:43;;;;;;;6.70;3.10;;;;;;;11.30;57.41;102340.16;6000266;28;20042;-68
2022/04/28 07:25:40;;;;;;;8.83;3.30;;;;;;;10.88;56.93;102345.84;5982181;28;20097;-68
2022/04/28 07:28:35;;;;;;;10.35;3.72;;;;;;;10.85;58.17;102346.91;5992710;28;20118;-68
2022/04/28 07:31:31;;;;;;;9.07;3.20;;;;;;;11.23;56.60;102347.69;6001737;28;20037;-68
2022/04/28 07:34:29;;;;;;;13.45;4.05;;;;;;;11.13;57.51;102348.47;6002834;28;20387;-69
2022/04/28 07:37:24;;;;;;;12.77;4.60;;;;;;;11.01;57.59;102352.84;6002177;28;20700;-68
2022/04/28 07:40:20;;;;;;;15.33;4.17;;;;;;;11.25;57.63;102343.13;6000785;28;20145;-68
2022/04/28 07:43:15;;;;;;;11.07;3.40;;;;;;;11.25;55.59;102350.28;6000880;28;20097;-68
2022/04/28 07:46:10;;;;;;;11.50;3.50;;;;;;;11.14;55.65;102350.19;6000838;28;20034;-68
2022/04/28 07:49:06;;;;;;;13.30;3.27;;;;;;;11.29;55.17;102347.28;6001002;28;20027;-69
2022/04/28 07:52:01;;;;;;;10.00;3.40;;;;;;;11.66;54.35;102340.13;6000135;28;20681;-68
2022/04/28 07:54:57;;;;;;;10.48;3.63;;;;;;;11.80;53.51;102347.94;6002512;28;20262;-69
2022/04/28 07:57:52;;;;;;;11.33;3.20;;;;;;;11.96;54.30;102345.00;6004323;28;20035;-68
2022/04/28 08:00:47;;;;;;;15.67;4.47;;;;;;;11.82;54.18;102343.38;5997338;28;20542;-68
2022/04/28 08:03:42;;;;;;;12.10;4.33;;;;;;;11.79;54.61;102340.97;5999526;28;20586;-68
2022/04/28 08:06:38;;;;;;;8.80;3.07;;;;;;;12.14;53.92;102340.13;6002165;28;20041;-68
2022/04/28 08:09:33;;;;;;;13.83;3.50;;;;;;;12.34;53.90;102342.09;6002345;28;20035;-69
2022/04/28 08:12:28;;;;;;;10.47;3.60;;;;;;;12.47;52.42;102348.19;6001478;28;20031;-69
2022/04/28 08:15:24;;;;;;;12.93;3.53;;;;;;;12.49;52.73;102354.22;6006907;28;20482;-68
2022/04/28 08:18:19;;;;;;;11.32;3.85;;;;;;;12.74;51.94;102354.03;6002287;28;20102;-69
2022/04/28 08:21:14;;;;;;;9.63;3.67;;;;;;;12.86;51.87;102354.88;6001225;28;20050;-69
2022/04/28 08:24:10;;;;;;;11.20;3.70;;;;;;;12.67;51.35;102355.47;6002277;28;20483;-69
2022/04/28 08:27:05;;;;;;;8.00;3.63;;;;;;;12.75;51.73;102363.69;6002414;28;20274;-66
2022/04/28 08:30:00;;;;;;;12.95;4.32;;;;;;;12.91;52.34;102358.88;6007217;28;20473;-66
2022/04/28 08:32:55;;;;;;;10.57;3.47;;;;;;;13.28;51.22;102363.97;6006578;28;20034;-67
2022/04/28 08:35:51;;;;;;;11.47;3.70;;;;;;;12.74;51.52;102361.16;6006254;28;20039;-68
2022/04/28 08:38:46;;;;;;;10.23;4.35;;;;;;;12.63;50.92;102363.81;6006419;28;20035;-67
2022/04/28 08:41:46;;;;;;;9.20;3.90;;;;;;;12.74;52.68;102363.84;6005566;28;20114;-67
2022/04/28 08:44:43;;;;;;;7.85;3.10;;;;;;;12.96;51.77;102362.00;6006402;28;20037;-68
2022/04/28 08:47:38;;;;;;;8.20;3.97;;;;;;;12.91;51.42;102364.19;6011461;28;20038;-67
2022/04/28 08:50:34;;;;;;;12.25;3.60;;;;;;;13.44;51.02;102359.09;6011008;28;20166;-68
2022/04/28 08:53:30;;;;;;;9.27;3.60;;;;;;;13.26;52.08;102363.25;6006078;28;20114;-67
2022/04/28 08:56:25;;;;;;;14.23;3.85;;;;;;;13.70;51.06;102353.34;6005153;28;20034;-67
2022/04/28 08:59:21;;;;;;;10.97;4.00;;;;;;;13.48;51.31;102361.38;6005747;28;20030;-68
2022/04/28 09:02:24;;;;;;;11.63;4.15;;;;;;;13.44;51.63;102359.09;6004182;28;20034;-67
2022/04/28 09:05:19;;;;;;;13.93;4.05;;;;;;;13.65;50.65;102360.88;6011172;28;20042;-68
2022/04/28 09:08:18;;;;;;;10.60;4.10;;;;;;;14.11;49.15;102367.72;6005728;28;20035;-71
2022/04/28 09:11:20;;;;;;;10.63;3.88;;;;;;;13.93;51.93;102370.13;6004571;28;20273;-67
2022/04/28 09:14:18;;;;;;;10.70;4.10;;;;;;;13.67;49.41;102364.25;6005784;28;20372;-66
2022/04/28 09:17:14;;;;;;;8.45;4.20;;;;;;;13.95;49.67;102372.66;6005148;28;20089;-67
2022/04/28 09:20:13;;;;;;;9.23;4.07;;;;;;;13.94;49.87;102369.13;6004931;28;20031;-68
2022/04/28 09:23:10;;;;;;;14.18;4.93;;;;;;;13.87;50.50;102375.09;6006171;28;20034;-66
2022/04/28 09:26:05;;;;;;;12.48;4.20;;;;;;;13.76;50.00;102372.47;6001575;28;20437;-66
2022/04/28 09:29:02;;;;;;;13.03;4.20;;;;;;;13.81;49.91;102371.13;6004007;28;20043;-67
2022/04/28 09:31:58;;;;;;;11.00;4.00;;;;;;;14.17;49.01;102368.06;6004296;28;20103;-68
2022/04/28 09:34:55;;;;;;;10.60;3.88;;;;;;;13.82;49.87;102370.16;6005158;28;20048;-67
2022/04/28 09:37:50;;;;;;;14.23;4.43;;;;;;;13.97;50.15;102363.53;6007319;28;20524;-66
2022/04/28 09:44:00;;;;;;;13.02;4.57;;;;;;;13.85;48.75;102364.56;6004923;28;20254;-68
2022/04/28 09:46:56;;;;;;;10.25;4.70;;;;;;;14.03;49.91;102364.84;6003371;28;20042;-67
2022/04/28 09:49:58;;;;;;;12.40;4.28;;;;;;;14.24;48.46;102358.56;6004926;28;20035;-67
2022/04/28 09:52:54;;;;;;;11.82;5.13;;;;;;;14.47;48.90;102347.78;6004784;28;20041;-67
2022/04/28 09:55:53;;;;;;;16.88;4.88;;;;;;;14.79;47.67;102353.88;6009238;28;20038;-67
2022/04/28 09:58:49;;;;;;;9.32;4.30;;;;;;;14.70;48.72;102354.69;6004417;28;20030;-66
2022/04/28 10:01:45;;;;;;;12.73;4.53;;;;;;;14.83;47.99;102358.84;6002541;28;20046;-67
2022/04/28 10:04:42;;;;;;;11.23;4.35;;;;;;;14.88;46.70;102356.63;6004499;28;20077;-67
2022/04/28 10:07:38;;;;;;;13.32;4.80;;;;;;;14.63;48.87;102348.16;6004659;28;20041;-66
2022/04/28 10:10:34;;;;;;;12.10;4.60;;;;;;;14.70;48.85;102354.69;6002477;28;20058;-67
2022/04/28 10:13:30;;;;;;;10.40;4.22;;;;;;;14.63;48.52;102356.19;6013446;28;20035;-67
2022/04/28 10:16:26;;;;;;;11.27;4.53;;;;;;;14.44;48.82;102342.72;6003956;28;20034;-67
2022/04/28 10:19:27;;;;;;;17.93;4.80;;;;;;;15.01;48.51;102337.66;6004068;28;20367;-67
2022/04/28 10:22:29;;;;;;;10.50;4.28;;;;;;;15.19;46.59;102336.03;6002400;28;20482;-67
2022/04/28 10:35:09;;;;;;;15.90;5.10;;;;;;;14.80;47.47;102334.22;6003975;28;20031;-68
2022/04/28 10:38:30;;;;;;;16.60;5.10;;;;;;;15.35;47.38;102333.72;6003556;28;20027;-67
2022/04/28 10:41:26;;;;;;;11.40;4.97;;;;;;;15.43;46.59;102325.00;6003174;28;20350;-67
2022/04/28 10:44:29;;;;;;;12.13;5.05;;;;;;;15.24;45.64;102330.31;6003153;28;20057;-69
2022/04/28 10:47:35;;;;;;;11.65;4.45;;;;;;;15.66;46.84;102338.97;6010373;28;20030;-67
2022/04/28 10:50:33;;;;;;;12.27;5.13;;;;;;;15.49;45.47;102325.31;6002082;28;20129;-66
2022/04/28 10:53:28;;;;;;;12.93;5.00;;;;;;;15.89;46.73;102327.03;6003713;28;20031;-66
2022/04/28 10:56:23;;;;;;;12.93;4.97;;;;;;;15.78;44.88;102328.03;6003444;28;20034;-68
2022/04/28 10:59:25;;;;;;;10.73;4.85;;;;;;;15.71;45.21;102331.41;6001928;28;20045;-67
2022/04/28 11:02:20;;;;;;;10.05;4.80;;;;;;;15.43;46.00;102325.84;6001151;28;20039;-67
2022/04/28 11:05:30;;;;;;;9.07;4.67;;;;;;;15.56;45.88;102330.13;6003848;28;20038;-68
2022/04/28 11:08:32;;;;;;;12.38;4.72;;;;;;;15.54;46.37;102318.72;6003088;28;20392;-68
2022/04/28 11:11:45;;;;;;;14.68;4.63;;;;;;;15.63;45.50;102318.72;6002265;28;20114;-68
2022/04/28 11:15:06;;;;;;;13.20;5.30;;;;;;;15.56;46.64;102322.94;6003215;28;20034;-68
2022/04/28 11:18:01;;;;;;;12.02;4.30;;;;;;;15.72;45.92;102315.22;6002814;28;20086;-68
2022/04/28 11:21:01;;;;;;;12.17;4.83;;;;;;;16.16;46.23;102320.97;6025412;28;20107;-66
2022/04/28 11:23:57;;;;;;;10.77;4.75;;;;;;;16.26;43.71;102316.44;6002563;28;20278;-68
2022/04/28 11:26:54;;;;;;;9.00;4.53;;;;;;;16.35;43.49;102316.44;6002745;28;20047;-67
2022/04/28 11:29:50;;;;;;;11.48;5.10;;;;;;;16.45;43.70;102311.91;6002879;28;20031;-67
2022/04/28 11:32:53;;;;;;;10.68;5.43;;;;;;;16.36;42.74;102302.03;6002795;28;20042;-68
2022/04/28 11:35:49;;;;;;;12.40;4.75;;;;;;;16.41;44.37;102305.16;6002608;28;20041;-67
2022/04/28 11:38:55;;;;;;;11.65;4.57;;;;;;;16.84;44.14;102296.56;6004469;28;20121;-67
2022/04/28 11:41:53;;;;;;;12.18;4.93;;;;;;;16.81;42.18;102301.38;6002464;28;20030;-67
2022/04/28 11:44:51;;;;;;;11.35;5.03;;;;;;;16.48;42.77;102298.22;6006466;28;20045;-67
2022/04/28 11:47:46;;;;;;;16.15;4.80;;;;;;;16.34;43.33;102293.31;6002603;28;20038;-67
2022/04/28 11:50:43;;;;;;;10.97;4.53;;;;;;;16.69;44.41;102297.22;6005325;28;20031;-67
2022/04/28 11:53:40;;;;;;;12.60;5.05;;;;;;;16.33;41.46;102305.03;6001745;28;20277;-67
2022/04/28 11:56:35;;;;;;;10.30;4.50;;;;;;;16.36;42.92;102299.38;6004204;28;20046;-67
2022/04/28 11:59:36;;;;;;;13.17;4.90;;;;;;;16.47;42.04;102298.38;6002114;28;20557;-68
2022/04/28 12:02:32;;;;;;;;;;;;;;;16.52;44.30;102302.28;6012243;28;20097;-67
2022/04/28 12:05:29;;;;;;;8.27;4.78;;;;;;;16.17;43.88;102286.00;6009085;28;19918;-68
2022/04/28 12:08:25;;;;;;;12.85;5.20;;;;;;;16.58;44.04;102293.69;6016884;28;20034;-67
2022/04/28 12:14:37;;;;;;;14.60;5.13;;;;;;;16.84;43.22;102291.22;6005859;28;20035;-67
2022/04/28 12:21:22;;;;;;;10.48;4.97;;;;;;;16.60;43.14;102281.00;6010163;28;20278;-67
2022/04/28 12:24:18;;;;;;;11.20;5.07;;;;;;;16.78;43.00;102280.22;6023378;28;20601;-68
2022/04/28 12:27:15;;;;;;;12.32;4.70;;;;;;;17.08;43.52;102287.97;6005427;28;20962;-66
2022/04/28 12:30:13;;;;;;;14.15;5.78;;;;;;;16.69;42.82;102278.47;6009346;28;20466;-67
2022/04/28 12:33:08;;;;;;;13.77;4.57;;;;;;;16.81;42.62;102279.94;6014016;28;20032;-67
2022/04/28 12:36:06;;;;;;;8.53;4.53;;;;;;;16.86;42.75;102283.00;6023537;28;20394;-67
2022/04/28 12:39:01;;;;;;;14.50;4.70;;;;;;;16.78;41.39;102280.22;6011542;28;20278;-67
2022/04/28 12:41:57;;;;;;;9.10;4.00;;;;;;;16.75;40.98;102286.72;6021349;28;20045;-67
2022/04/28 12:44:53;;;;;;;10.82;3.72;;;;;;;16.83;40.85;102288.66;6019557;28;20659;-68
2022/04/28 12:47:50;;;;;;;9.55;4.00;;;;;;;17.17;40.82;102279.91;6013972;28;20047;-67
2022/04/28 12:50:48;;;;;;;13.43;4.03;;;;;;;17.17;40.47;102293.31;6012219;28;20038;-67
2022/04/28 12:53:55;;;;;;;9.30;4.00;;;;;;;17.04;40.32;102284.75;6006767;28;20043;-68
2022/04/28 12:56:59;;;;;;;8.70;3.45;;;;;;;16.95;41.58;102287.50;6009035;28;20375;-67
2022/04/28 12:59:55;;;;;;;9.32;3.97;;;;;;;17.39;39.59;102277.78;6013146;28;20065;-67
2022/04/28 13:02:51;;;;;;;8.27;3.53;;;;;;;17.49;39.57;102290.13;6011729;28;20034;-68
2022/04/28 13:05:47;;;;;;;11.07;4.55;;;;;;;17.15;39.67;102287.22;6014918;28;20065;-67
2022/04/28 13:08:44;;;;;;;10.93;3.70;;;;;;;17.47;40.38;102280.53;6008431;28;20041;-68
2022/04/28 13:11:40;;;;;;;7.43;3.90;;;;;;;17.31;41.15;102277.69;6020090;28;20701;-67
2022/04/28 13:14:35;;;;;;;9.02;3.53;;;;;;;17.43;40.53;102266.56;6006875;28;20058;-68
2022/04/28 13:17:31;;;;;;;7.87;3.77;;;;;;;17.67;39.27;102272.22;6006479;28;20100;-68
2022/04/28 13:20:26;;;;;;;8.18;4.20;;;;;;;17.60;39.10;102257.72;6013786;28;20034;-67
2022/04/28 13:23:21;;;;;;;9.27;3.90;;;;;;;17.60;40.81;102271.16;6008615;28;20049;-67
2022/04/28 13:26:19;;;;;;;9.87;4.47;;;;;;;17.68;40.15;102259.63;6015036;28;22405;-68
2022/04/28 13:29:14;;;;;;;10.02;4.50;;;;;;;17.44;39.70;102248.66;6011477;28;20351;-67
2022/04/28 13:32:09;;;;;;;7.90;4.23;;;;;;;17.49;39.31;102252.56;6004779;28;20031;-68
2022/04/28 13:35:05;;;;;;;8.00;3.47;;;;;;;17.34;39.18;102251.38;6015605;28;20026;-68
2022/04/28 13:38:01;;;;;;;13.07;4.05;;;;;;;17.76;37.93;102247.13;6005155;28;20130;-68
2022/04/28 13:40:56;;;;;;;12.10;4.15;;;;;;;18.15;38.63;102246.75;6017413;28;20042;-67
2022/04/28 13:43:51;;;;;;;10.90;4.00;;;;;;;18.14;39.33;102245.91;6003889;28;20272;-67
2022/04/28 13:46:47;;;;;;;10.93;4.30;;;;;;;18.13;38.34;102241.53;6022766;28;20293;-67
2022/04/28 13:49:42;;;;;;;10.75;4.50;;;;;;;18.08;37.93;102234.94;6021233;28;20506;-67
2022/04/28 13:52:38;;;;;;;6.88;3.80;;;;;;;18.05;36.93;102240.63;6017252;28;20026;-68
2022/04/28 13:55:33;;;;;;;10.37;3.90;;;;;;;17.75;38.54;102229.34;6008579;28;20046;-66
2022/04/28 13:58:29;;;;;;;11.90;3.65;;;;;;;17.83;37.99;102236.59;6011063;28;20034;-67
2022/04/28 14:01:24;;;;;;;9.70;3.47;;;;;;;17.90;37.27;102226.94;6015200;28;20034;-67
2022/04/28 14:04:24;;;;;;;11.27;3.83;;;;;;;18.05;37.22;102233.41;6000746;28;20121;-68
2022/04/28 14:07:19;;;;;;;;;;;;;;;18.22;35.95;102231.69;6008864;28;20105;-68
2022/04/28 14:10:15;;;;;;;6.50;3.20;;;;;;;18.40;36.50;102229.78;6016064;28;19936;-67
2022/04/28 14:13:11;;;;;;;13.23;3.70;;;;;;;18.40;36.62;102225.25;6007510;28;20382;-67
2022/04/28 14:16:06;;;;;;;7.80;3.33;;;;;;;18.35;36.00;102222.19;6006482;28;20375;-67